createdAt,value
2019-03-05T00:01:07.269Z,11.53
2019-03-05T00:03:36.081Z,11.51
2019-03-05T00:06:04.907Z,11.51
2019-03-05T00:08:34.128Z,11.52
2019-03-05T00:11:03.254Z,11.49
2019-03-05T00:13:32.255Z,11.49
2019-03-05T00:16:01.177Z,11.49
2019-03-05T00:18:30.261Z,11.48
2019-03-05T00:20:59.270Z,11.47
2019-03-05T00:24:15.789Z,11.45
2019-03-05T00:26:45.311Z,11.44
2019-03-05T00:29:52.430Z,11.43
2019-03-05T00:32:21.394Z,11.43
2019-03-05T00:35:24.648Z,11.42
2019-03-05T00:38:05.636Z,11.42
2019-03-05T00:40:39.879Z,11.40
2019-03-05T00:43:15.695Z,11.40
2019-03-05T00:46:24.567Z,11.38
2019-03-05T00:49:30.811Z,11.36
2019-03-05T00:52:53.496Z,11.36
2019-03-05T00:55:56.092Z,11.36
2019-03-05T00:58:41.596Z,11.35
2019-03-05T01:01:35.971Z,11.34
2019-03-05T01:04:23.966Z,11.34
2019-03-05T01:06:53.101Z,11.35
2019-03-05T01:09:23.161Z,11.33
2019-03-05T01:11:52.113Z,11.33
2019-03-05T01:14:21.873Z,11.33
2019-03-05T01:16:50.993Z,11.33
2019-03-05T01:19:20.001Z,11.31
2019-03-05T01:21:49.066Z,11.32
2019-03-05T01:24:18.165Z,11.32
2019-03-05T01:26:47.194Z,11.32
2019-03-05T01:29:16.153Z,11.28
2019-03-05T01:32:04.281Z,11.27
2019-03-05T01:35:04.530Z,11.27
2019-03-05T01:37:33.568Z,11.26
2019-03-05T01:40:21.228Z,11.25
2019-03-05T01:42:50.366Z,11.26
2019-03-05T01:45:19.230Z,11.24
2019-03-05T01:47:48.276Z,11.24
2019-03-05T01:50:17.176Z,11.22
2019-03-05T01:52:46.309Z,11.22
2019-03-05T01:55:15.309Z,11.23
2019-03-05T01:57:44.270Z,11.21
2019-03-05T02:00:13.412Z,11.22
2019-03-05T02:02:42.372Z,11.24
2019-03-05T02:05:11.625Z,11.21
2019-03-05T02:07:40.427Z,11.20
2019-03-05T02:10:17.568Z,11.20
2019-03-05T02:12:46.695Z,11.19
2019-03-05T02:15:15.551Z,11.18
2019-03-05T02:17:44.536Z,11.17
2019-03-05T02:20:40.032Z,11.17
2019-03-05T02:23:19.505Z,11.16
2019-03-05T02:25:56.401Z,11.16
2019-03-05T02:28:43.837Z,11.15
2019-03-05T02:31:57.211Z,11.15
2019-03-05T02:34:56.080Z,11.15
2019-03-05T02:37:36.143Z,11.13
2019-03-05T02:40:42.895Z,11.12
2019-03-05T02:43:34.023Z,11.12
2019-03-05T02:46:52.696Z,11.10
2019-03-05T02:49:38.412Z,11.10
2019-03-05T02:53:00.571Z,11.08
2019-03-05T02:55:58.444Z,11.09
2019-03-05T02:58:25.943Z,11.08
2019-03-05T03:01:15.094Z,11.07
2019-03-05T03:03:47.045Z,11.06
2019-03-05T03:06:22.062Z,11.06
2019-03-05T03:08:57.573Z,11.05
2019-03-05T03:11:26.359Z,11.06
2019-03-05T03:13:55.252Z,11.05
2019-03-05T03:16:24.292Z,11.07
2019-03-05T03:18:53.173Z,11.05
2019-03-05T03:21:22.410Z,11.05
2019-03-05T03:23:51.412Z,11.02
2019-03-05T03:26:20.448Z,11.00
2019-03-05T03:28:49.501Z,11.00
2019-03-05T03:31:18.413Z,11.00
2019-03-05T03:33:47.458Z,10.99
2019-03-05T03:36:16.461Z,11.00
2019-03-05T03:38:45.467Z,10.99
2019-03-05T03:41:14.483Z,11.00
2019-03-05T03:43:43.400Z,10.99
2019-03-05T03:46:12.194Z,10.98
2019-03-05T03:48:41.213Z,10.98
2019-03-05T03:51:10.502Z,10.97
2019-03-05T03:56:27.299Z,10.95
2019-03-05T03:58:56.545Z,10.94
2019-03-05T04:01:25.484Z,10.93
2019-03-05T04:03:54.567Z,10.91
2019-03-05T04:06:23.544Z,10.92
2019-03-05T04:08:52.690Z,10.91
2019-03-05T04:11:21.553Z,10.90
2019-03-05T04:13:50.346Z,10.90
2019-03-05T04:16:19.323Z,10.89
2019-03-05T04:18:48.175Z,10.89
2019-03-05T04:21:19.842Z,10.88
2019-03-05T04:23:47.783Z,10.89
2019-03-05T04:26:16.756Z,10.87
2019-03-05T04:28:45.749Z,10.87
2019-03-05T04:31:14.765Z,10.85
2019-03-05T04:33:43.748Z,10.85
2019-03-05T04:36:12.760Z,10.84
2019-03-05T04:38:41.820Z,10.84
2019-03-05T04:41:10.780Z,10.82
2019-03-05T04:43:39.890Z,10.81
2019-03-05T04:46:27.697Z,10.81
2019-03-05T04:49:33.666Z,10.80
2019-03-05T04:52:09.244Z,10.80
2019-03-05T04:54:38.103Z,10.77
2019-03-05T04:57:06.930Z,10.78
2019-03-05T04:59:35.941Z,10.79
2019-03-05T05:02:04.873Z,10.78
2019-03-05T05:04:33.925Z,10.76
2019-03-05T05:07:02.889Z,10.75
2019-03-05T05:09:33.451Z,10.74
2019-03-05T05:12:02.363Z,10.74
2019-03-05T05:14:31.229Z,10.73
2019-03-05T05:17:00.013Z,10.73
2019-03-05T05:19:28.912Z,10.73
2019-03-05T05:21:57.769Z,10.73
2019-03-05T05:24:27.012Z,10.72
2019-03-05T05:26:56.081Z,10.72
2019-03-05T05:29:25.048Z,10.72
2019-03-05T05:31:54.009Z,10.72
2019-03-05T05:34:22.881Z,10.73
2019-03-05T05:36:51.870Z,10.74
2019-03-05T05:40:12.565Z,10.75
2019-03-05T05:42:41.621Z,10.76
2019-03-05T05:45:14.096Z,10.78
2019-03-05T05:47:43.174Z,10.79
2019-03-05T05:50:12.185Z,10.81
2019-03-05T05:52:41.187Z,10.86
2019-03-05T05:55:10.215Z,10.88
2019-03-05T05:57:39.212Z,10.88
2019-03-05T06:00:10.345Z,10.89
2019-03-05T06:02:39.189Z,10.90
2019-03-05T06:05:08.296Z,10.93
2019-03-05T06:07:37.265Z,10.96
2019-03-05T06:10:07.270Z,10.99
2019-03-05T06:12:36.198Z,11.01
2019-03-05T06:15:05.372Z,11.02
2019-03-05T06:17:34.395Z,11.03
2019-03-05T06:20:03.409Z,11.06
2019-03-05T06:22:32.640Z,11.09
2019-03-05T06:25:01.422Z,11.09
2019-03-05T06:27:30.252Z,11.11
2019-03-05T06:29:59.069Z,11.12
2019-03-05T06:32:27.912Z,11.14
2019-03-05T06:34:56.905Z,11.15
2019-03-05T06:37:25.905Z,11.16
2019-03-05T06:39:54.861Z,11.10
2019-03-05T06:42:24.354Z,11.09
2019-03-05T06:44:53.154Z,11.14
2019-03-05T06:47:22.029Z,11.13
2019-03-05T06:49:51.229Z,11.17
2019-03-05T06:52:20.471Z,11.23
2019-03-05T06:57:24.774Z,11.58
2019-03-05T06:59:53.632Z,11.81
2019-03-05T07:02:22.460Z,11.94
2019-03-05T07:05:00.358Z,12.09
2019-03-05T07:07:30.959Z,12.20
2019-03-05T07:10:38.578Z,12.35
2019-03-05T07:13:13.725Z,12.47
2019-03-05T07:16:05.596Z,12.54
2019-03-05T07:18:44.093Z,12.60
2019-03-05T07:21:52.881Z,12.65
2019-03-05T07:24:47.665Z,12.68
2019-03-05T07:27:28.411Z,12.70
2019-03-05T07:30:17.936Z,12.74
2019-03-05T07:32:47.323Z,12.74
2019-03-05T07:35:19.369Z,12.74
2019-03-05T07:37:48.455Z,12.75
2019-03-05T07:40:17.273Z,12.80
2019-03-05T07:42:46.235Z,12.80
2019-03-05T07:45:15.283Z,12.82
2019-03-05T07:47:44.444Z,12.82
2019-03-05T07:50:13.823Z,12.82
2019-03-05T07:52:42.708Z,12.81
2019-03-05T07:55:14.239Z,12.81
2019-03-05T07:57:43.393Z,12.83
2019-03-05T08:00:14.899Z,12.83
2019-03-05T08:02:43.856Z,12.82
2019-03-05T08:05:14.036Z,12.80
2019-03-05T08:07:43.090Z,12.79
2019-03-05T08:10:26.794Z,12.80
2019-03-05T08:13:44.993Z,12.80
2019-03-05T08:16:16.952Z,12.81
2019-03-05T08:18:45.969Z,12.85
2019-03-05T08:21:14.964Z,12.87
2019-03-05T08:23:43.992Z,12.88
2019-03-05T08:26:12.909Z,12.85
2019-03-05T08:28:41.983Z,12.80
2019-03-05T08:31:10.949Z,12.73
2019-03-05T08:33:39.963Z,12.69
2019-03-05T08:36:08.941Z,12.64
2019-03-05T08:38:38.019Z,12.58
2019-03-05T08:41:06.929Z,12.56
2019-03-05T08:43:36.069Z,12.53
2019-03-05T08:46:06.005Z,12.48
2019-03-05T08:48:35.003Z,12.46
2019-03-05T08:51:04.010Z,12.44
2019-03-05T08:53:33.161Z,12.41
2019-03-05T08:56:02.129Z,12.41
2019-03-05T08:58:30.992Z,12.39
2019-03-05T09:00:59.880Z,12.37
2019-03-05T09:03:28.793Z,12.36
2019-03-05T09:05:57.653Z,12.35
2019-03-05T09:08:26.861Z,12.33
2019-03-05T09:10:56.135Z,12.31
2019-03-05T09:13:32.743Z,12.31
2019-03-05T09:15:55.751Z,12.30
2019-03-05T09:18:24.929Z,12.33
2019-03-05T09:20:54.116Z,12.36
2019-03-05T09:23:23.217Z,12.41
2019-03-05T09:25:52.232Z,12.44
2019-03-05T09:28:21.451Z,12.46
2019-03-05T09:30:50.276Z,12.48
2019-03-05T09:33:19.468Z,12.51
2019-03-05T09:36:07.253Z,12.63
2019-03-05T09:38:36.280Z,12.69
2019-03-05T09:41:05.319Z,12.77
2019-03-05T09:43:34.299Z,12.81
2019-03-05T09:46:03.309Z,12.82
2019-03-05T09:48:32.327Z,12.82
2019-03-05T09:51:01.378Z,12.79
2019-03-05T09:53:30.255Z,12.74
2019-03-05T09:55:59.227Z,12.74
2019-03-05T09:58:28.131Z,12.74
2019-03-05T10:00:57.735Z,12.75
2019-03-05T10:03:26.741Z,12.80
2019-03-05T10:05:55.913Z,12.83
2019-03-05T10:08:32.448Z,12.86
2019-03-05T10:10:55.484Z,12.91
2019-03-05T10:13:24.382Z,12.91
2019-03-05T10:15:53.656Z,12.93
2019-03-05T10:18:22.582Z,12.93
2019-03-05T10:20:51.534Z,13.06
2019-03-05T10:23:20.528Z,12.74
2019-03-05T10:25:49.471Z,12.66
2019-03-05T10:28:18.420Z,12.62
2019-03-05T10:30:47.208Z,12.66
2019-03-05T10:33:16.965Z,12.69
2019-03-05T10:35:45.985Z,12.73
2019-03-05T10:38:14.991Z,12.78
2019-03-05T10:40:44.047Z,12.81
2019-03-05T10:43:13.673Z,12.82
2019-03-05T10:45:44.728Z,12.87
2019-03-05T10:48:34.560Z,13.16
2019-03-05T10:51:03.595Z,13.40
2019-03-05T10:53:32.622Z,13.56
2019-03-05T10:56:01.610Z,13.71
2019-03-05T10:58:34.181Z,13.90
2019-03-05T11:01:21.651Z,13.99
2019-03-05T11:03:50.598Z,14.05
2019-03-05T11:06:19.601Z,14.09
2019-03-05T11:08:48.614Z,14.10
2019-03-05T11:11:17.676Z,14.13
2019-03-05T11:13:46.660Z,14.14
2019-03-05T11:16:15.615Z,14.19
2019-03-05T11:18:44.786Z,14.19
2019-03-05T11:21:13.816Z,14.14
2019-03-05T11:23:42.727Z,14.18
2019-03-05T11:26:11.662Z,14.20
2019-03-05T11:28:40.540Z,14.24
2019-03-05T11:31:10.021Z,14.26
2019-03-05T11:33:38.824Z,14.33
2019-03-05T11:36:07.813Z,14.35
2019-03-05T11:38:36.784Z,14.37
2019-03-05T11:41:05.814Z,14.41
2019-03-05T11:43:34.969Z,14.42
2019-03-05T11:46:03.867Z,14.40
2019-03-05T11:48:32.888Z,14.41
2019-03-05T11:51:01.895Z,14.43
2019-03-05T11:53:31.740Z,14.39
2019-03-05T11:56:00.670Z,14.45
2019-03-05T11:58:30.661Z,14.41
2019-03-05T12:01:20.940Z,14.35
2019-03-05T12:03:49.963Z,14.31
2019-03-05T12:06:18.877Z,14.30
2019-03-05T12:08:47.887Z,14.29
2019-03-05T12:11:16.933Z,14.28
2019-03-05T12:13:45.937Z,14.24
2019-03-05T12:16:15.462Z,14.26
2019-03-05T12:18:44.444Z,14.28
2019-03-05T12:21:13.439Z,14.29
2019-03-05T12:23:46.691Z,14.32
2019-03-05T12:26:13.014Z,14.35
2019-03-05T12:28:42.462Z,14.35
2019-03-05T12:31:11.529Z,14.38
2019-03-05T12:33:40.762Z,14.42
2019-03-05T12:36:09.965Z,14.43
2019-03-05T12:38:38.765Z,14.44
2019-03-05T12:41:07.742Z,14.44
2019-03-05T12:43:36.804Z,14.42
2019-03-05T12:46:05.815Z,14.43
2019-03-05T12:48:39.880Z,14.43
2019-03-05T12:51:06.090Z,14.45
2019-03-05T12:53:35.054Z,14.43
2019-03-05T12:56:04.137Z,14.44
2019-03-05T12:58:33.208Z,14.42
2019-03-05T13:01:02.046Z,14.39
2019-03-05T13:03:30.871Z,14.36
2019-03-05T13:05:59.881Z,14.34
2019-03-05T13:08:28.917Z,14.29
2019-03-05T13:10:57.769Z,14.29
2019-03-05T13:13:26.738Z,14.29
2019-03-05T13:15:56.561Z,14.28
2019-03-05T13:18:26.773Z,14.25
2019-03-05T13:20:57.131Z,14.18
2019-03-05T13:23:26.047Z,14.04
2019-03-05T13:25:55.032Z,13.94
2019-03-05T13:28:23.959Z,13.86
2019-03-05T13:30:52.855Z,13.83
2019-03-05T13:33:21.803Z,13.80
2019-03-05T13:35:50.781Z,13.79
2019-03-05T13:38:19.786Z,13.77
2019-03-05T13:40:48.785Z,13.76
2019-03-05T13:43:17.827Z,13.77
2019-03-05T13:45:49.519Z,13.75
2019-03-05T13:48:59.681Z,13.75
2019-03-05T13:52:04.459Z,13.76
2019-03-05T13:54:48.448Z,13.86
2019-03-05T13:57:51.506Z,13.85
2019-03-05T14:00:21.462Z,13.86
2019-03-05T14:03:11.474Z,13.84
2019-03-05T14:06:14.555Z,13.84
2019-03-05T14:09:14.644Z,13.81
2019-03-05T14:11:44.454Z,13.81
2019-03-05T14:14:24.429Z,13.80
2019-03-05T14:16:57.897Z,13.82
2019-03-05T14:19:26.926Z,13.89
2019-03-05T14:21:55.931Z,13.91
2019-03-05T14:24:25.062Z,13.92
2019-03-05T14:26:54.034Z,13.92
2019-03-05T14:29:23.052Z,13.92
2019-03-05T14:31:51.950Z,13.92
2019-03-05T14:34:20.980Z,13.94
2019-03-05T14:36:49.880Z,13.98
2019-03-05T14:39:28.062Z,14.02
2019-03-05T14:41:56.890Z,14.06
2019-03-05T14:44:25.734Z,14.09
2019-03-05T14:46:58.905Z,14.14
2019-03-05T14:49:28.480Z,14.18
2019-03-05T14:51:58.164Z,14.20
2019-03-05T14:54:27.132Z,14.24
2019-03-05T14:56:56.438Z,14.28
2019-03-05T14:59:25.332Z,14.31
2019-03-05T15:01:54.224Z,14.31
2019-03-05T15:04:23.150Z,14.34
2019-03-05T15:07:12.935Z,14.38
2019-03-05T15:09:42.055Z,14.42
2019-03-05T15:12:10.867Z,14.46
2019-03-05T15:14:39.922Z,14.51
2019-03-05T15:17:08.839Z,14.56
2019-03-05T15:19:37.892Z,14.60
2019-03-05T15:22:06.888Z,14.61
2019-03-05T15:24:35.920Z,14.70
2019-03-05T15:27:23.878Z,14.76
2019-03-05T15:29:52.963Z,14.64
2019-03-05T15:32:21.961Z,14.33
2019-03-05T15:34:51.136Z,14.19
2019-03-05T15:37:19.994Z,14.21
2019-03-05T15:39:49.020Z,14.29
2019-03-05T15:42:17.961Z,14.41
2019-03-05T15:44:47.111Z,14.55
2019-03-05T15:47:16.057Z,14.64
2019-03-05T15:49:45.065Z,14.73
2019-03-05T15:52:13.916Z,14.84
2019-03-05T15:54:43.023Z,14.94
2019-03-05T15:57:31.038Z,14.99
2019-03-05T16:00:00.182Z,15.05
2019-03-05T16:02:29.122Z,15.13
2019-03-05T16:04:58.161Z,15.18
2019-03-05T16:07:26.967Z,15.23
2019-03-05T16:09:55.790Z,15.17
2019-03-05T16:12:24.922Z,15.15
2019-03-05T16:14:54.421Z,15.07
2019-03-05T16:17:24.201Z,15.00
2019-03-05T16:19:54.044Z,14.94
2019-03-05T16:22:24.431Z,14.87
2019-03-05T16:24:53.677Z,14.81
2019-03-05T16:27:22.754Z,14.76
2019-03-05T16:29:52.016Z,14.72
2019-03-05T16:32:36.791Z,14.66
2019-03-05T16:35:22.931Z,14.63
2019-03-05T16:38:20.184Z,14.58
2019-03-05T16:41:06.830Z,14.53
2019-03-05T16:43:44.796Z,14.46
2019-03-05T16:46:32.982Z,14.42
2019-03-05T16:49:19.534Z,14.39
2019-03-05T16:52:07.326Z,14.34
2019-03-05T16:55:03.595Z,14.28
2019-03-05T16:57:49.742Z,14.23
2019-03-05T17:00:29.588Z,14.17
2019-03-05T17:03:17.854Z,14.13
2019-03-05T17:06:14.685Z,14.09
2019-03-05T17:09:02.617Z,14.06
2019-03-05T17:11:49.275Z,14.01
2019-03-05T17:14:18.116Z,13.97
2019-03-05T17:16:47.229Z,13.94
2019-03-05T17:19:16.229Z,13.90
2019-03-05T17:21:45.452Z,13.87
2019-03-05T17:24:14.452Z,13.83
2019-03-05T17:26:43.541Z,13.79
2019-03-05T17:29:12.380Z,13.77
2019-03-05T17:31:41.309Z,13.74
2019-03-05T17:34:10.225Z,13.71
2019-03-05T17:39:27.609Z,13.66
2019-03-05T17:41:56.605Z,13.62
2019-03-05T17:44:25.556Z,13.60
2019-03-05T17:46:54.568Z,13.59
2019-03-05T17:49:23.578Z,13.56
2019-03-05T17:51:52.607Z,13.53
2019-03-05T17:54:21.607Z,13.51
2019-03-05T17:56:50.681Z,13.47
2019-03-05T17:59:19.580Z,13.47
2019-03-05T18:01:48.551Z,13.44
2019-03-05T18:04:17.477Z,13.41
2019-03-05T18:06:46.341Z,13.40
2019-03-05T18:09:15.641Z,13.37
2019-03-05T18:11:44.650Z,13.36
2019-03-05T18:14:13.602Z,13.32
2019-03-05T18:16:42.392Z,13.30
2019-03-05T18:19:11.249Z,13.28
2019-03-05T18:21:40.749Z,13.24
2019-03-05T18:24:28.781Z,13.24
2019-03-05T18:26:57.655Z,13.22
2019-03-05T18:29:26.839Z,13.18
2019-03-05T18:31:55.738Z,13.17
2019-03-05T18:34:24.848Z,13.14
2019-03-05T18:36:53.712Z,13.12
2019-03-05T18:39:22.602Z,13.09
2019-03-05T18:41:51.641Z,13.08
2019-03-05T18:44:20.554Z,13.07
2019-03-05T18:46:49.745Z,13.04
2019-03-05T18:49:18.885Z,13.03
2019-03-05T18:52:06.925Z,13.01
2019-03-05T18:54:35.977Z,12.99
2019-03-05T18:57:04.921Z,12.96
2019-03-05T18:59:33.922Z,12.93
2019-03-05T19:02:04.688Z,12.91
2019-03-05T19:04:33.873Z,12.90
2019-03-05T19:07:02.968Z,12.89
2019-03-05T19:09:31.985Z,12.87
2019-03-05T19:12:01.024Z,12.84
2019-03-05T19:14:29.905Z,12.83
2019-03-05T19:16:58.801Z,12.81
2019-03-05T19:19:27.882Z,12.79
2019-03-05T19:21:57.090Z,12.77
2019-03-05T19:24:26.021Z,12.77
2019-03-05T19:26:55.107Z,12.75
2019-03-05T19:29:24.059Z,12.72
2019-03-05T19:31:53.080Z,12.72
2019-03-05T19:34:22.220Z,12.70
2019-03-05T19:36:51.252Z,12.68
2019-03-05T19:39:20.227Z,12.65
2019-03-05T19:41:55.835Z,12.64
2019-03-05T19:44:19.916Z,12.61
2019-03-05T19:46:48.855Z,12.60
2019-03-05T19:49:17.947Z,12.57
2019-03-05T19:51:46.897Z,12.55
2019-03-05T19:54:15.764Z,12.53
2019-03-05T19:56:44.634Z,12.51
2019-03-05T19:59:13.697Z,12.49
2019-03-05T20:01:47.656Z,12.47
2019-03-05T20:04:16.732Z,12.44
2019-03-05T20:06:45.811Z,12.42
2019-03-05T20:09:19.316Z,12.42
2019-03-05T20:11:48.421Z,12.40
2019-03-05T20:14:36.529Z,12.39
2019-03-05T20:17:06.014Z,12.38
2019-03-05T20:19:35.331Z,12.35
2019-03-05T20:22:04.357Z,12.34
2019-03-05T20:24:33.353Z,12.33
2019-03-05T20:27:02.350Z,12.30
2019-03-05T20:29:32.583Z,12.27
2019-03-05T20:32:01.404Z,12.28
2019-03-05T20:34:30.362Z,12.25
2019-03-05T20:36:59.418Z,12.23
2019-03-05T20:39:28.393Z,12.22
2019-03-05T20:41:58.635Z,12.21
2019-03-05T20:44:27.478Z,12.20
2019-03-05T20:46:56.402Z,12.17
2019-03-05T20:49:25.525Z,12.14
2019-03-05T20:51:54.564Z,12.14
2019-03-05T20:54:27.739Z,12.12
2019-03-05T20:56:56.724Z,12.10
2019-03-05T20:59:25.695Z,12.08
2019-03-05T21:01:54.587Z,12.09
2019-03-05T21:04:23.538Z,12.07
2019-03-05T21:06:52.567Z,12.06
2019-03-05T21:09:23.516Z,12.04
2019-03-05T21:11:52.547Z,12.04
2019-03-05T21:14:22.673Z,12.04
2019-03-05T21:16:51.820Z,12.04
2019-03-05T21:19:20.834Z,12.01
2019-03-05T21:22:08.565Z,11.99
2019-03-05T21:24:37.859Z,11.98
2019-03-05T21:27:06.709Z,11.95
2019-03-05T21:29:36.138Z,11.95
2019-03-05T21:32:08.369Z,11.92
2019-03-05T21:34:37.479Z,11.92
2019-03-05T21:37:06.788Z,11.89
2019-03-05T21:39:36.266Z,11.90
2019-03-05T21:42:05.272Z,11.88
2019-03-05T21:44:34.417Z,11.84
2019-03-05T21:47:03.733Z,11.85
2019-03-05T21:49:32.792Z,11.86
2019-03-05T21:52:01.733Z,11.82
2019-03-05T21:54:30.828Z,11.80
2019-03-05T21:56:59.692Z,11.80
2019-03-05T21:59:28.852Z,11.81
2019-03-05T22:01:57.776Z,11.79
2019-03-05T22:04:26.757Z,11.77
2019-03-05T22:06:55.542Z,11.75
2019-03-05T22:09:24.546Z,11.74
2019-03-05T22:11:53.578Z,11.71
2019-03-05T22:14:22.685Z,11.72
2019-03-05T22:16:51.913Z,11.71
2019-03-05T22:19:39.961Z,11.69
2019-03-05T22:22:08.855Z,11.69
2019-03-05T22:24:37.761Z,11.67
2019-03-05T22:27:06.763Z,11.66
2019-03-05T22:29:36.212Z,11.66
2019-03-05T22:32:05.323Z,11.64
2019-03-05T22:34:34.273Z,11.63
2019-03-05T22:37:05.473Z,11.62
2019-03-05T22:39:34.537Z,11.63
2019-03-05T22:42:03.492Z,11.60
2019-03-05T22:44:32.534Z,11.59
2019-03-05T22:47:01.526Z,11.57
2019-03-05T22:49:30.650Z,11.56
2019-03-05T22:51:59.612Z,11.56
2019-03-05T22:54:28.504Z,11.53
2019-03-05T22:56:57.501Z,11.52
2019-03-05T22:59:26.542Z,11.51
2019-03-05T23:01:55.660Z,11.49
2019-03-05T23:04:33.825Z,11.48
2019-03-05T23:07:02.686Z,11.48
2019-03-05T23:09:31.656Z,11.47
2019-03-05T23:12:00.638Z,11.45
2019-03-05T23:14:29.571Z,11.43
2019-03-05T23:16:58.662Z,11.42
2019-03-05T23:19:27.792Z,11.39
2019-03-05T23:21:56.919Z,11.39
2019-03-05T23:24:25.943Z,11.36
2019-03-05T23:26:55.297Z,11.36
2019-03-05T23:29:43.380Z,11.36
2019-03-05T23:32:12.599Z,11.34
2019-03-05T23:34:42.531Z,11.31
2019-03-05T23:37:11.552Z,11.28
2019-03-05T23:39:40.714Z,11.24
2019-03-05T23:42:09.713Z,11.26
2019-03-05T23:44:38.742Z,11.26
2019-03-05T23:47:07.754Z,11.24
2019-03-05T23:49:36.817Z,11.23
2019-03-05T23:52:25.172Z,11.23
2019-03-05T23:54:54.096Z,11.21
2019-03-05T23:57:22.982Z,11.13
2019-03-05T23:59:51.992Z,11.15
